createdAt,value
2023-02-01T00:01:45.715Z,99164.95
2023-02-01T00:04:13.995Z,99163.86
2023-02-01T00:06:45.044Z,99161.22
2023-02-01T00:09:14.053Z,99160.45
2023-02-01T00:11:42.224Z,99160.44
2023-02-01T00:14:11.422Z,99158.45
2023-02-01T00:16:39.707Z,99152.94
2023-02-01T00:19:11.864Z,99155.34
2023-02-01T00:21:40.132Z,99152.47
2023-02-01T00:24:10.043Z,99149.23
2023-02-01T00:26:42.995Z,99156.06
2023-02-01T00:29:17.475Z,99150.00
2023-02-01T00:31:46.020Z,99149.11
2023-02-01T00:34:16.717Z,99147.66
2023-02-01T00:36:45.337Z,99144.52
2023-02-01T00:39:14.167Z,99139.64
2023-02-01T00:41:42.930Z,99134.11
2023-02-01T00:44:12.038Z,99140.48
2023-02-01T00:46:40.540Z,99139.86
2023-02-01T00:49:10.380Z,99141.29
2023-02-01T00:51:39.093Z,99139.98
2023-02-01T00:54:07.653Z,99140.17
2023-02-01T00:56:36.620Z,99138.02
2023-02-01T00:59:07.361Z,99136.88
2023-02-01T01:01:36.730Z,99137.80
2023-02-01T01:04:05.794Z,99140.77
2023-02-01T01:06:35.364Z,99137.06
2023-02-01T01:09:06.863Z,99142.27
2023-02-01T01:11:37.683Z,99139.16
2023-02-01T01:14:08.383Z,99144.77
2023-02-01T01:16:37.638Z,99145.28
2023-02-01T01:19:06.157Z,99144.39
2023-02-01T01:21:34.768Z,99142.63
2023-02-01T01:24:03.453Z,99140.60
2023-02-01T01:26:32.138Z,99141.44
2023-02-01T01:29:00.982Z,99135.41
2023-02-01T01:31:30.155Z,99142.95
2023-02-01T01:33:59.937Z,99144.53
2023-02-01T01:36:29.640Z,99145.11
2023-02-01T01:38:58.513Z,99147.13
2023-02-01T01:41:30.043Z,99146.42
2023-02-01T01:44:05.203Z,99139.41
2023-02-01T01:46:38.682Z,99141.57
2023-02-01T01:49:14.216Z,99139.98
2023-02-01T01:51:49.186Z,99140.40
2023-02-01T01:54:22.329Z,99134.92
2023-02-01T01:56:52.983Z,99130.04
2023-02-01T01:59:23.289Z,99125.63
2023-02-01T02:01:52.051Z,99123.42
2023-02-01T02:04:22.468Z,99125.23
2023-02-01T04:00:41.692Z,99077.76
2023-02-01T04:03:10.380Z,99078.14
2023-02-01T04:05:38.863Z,99081.00
2023-02-01T04:08:09.184Z,99083.89
2023-02-01T04:10:39.513Z,99088.29
2023-02-01T04:13:08.815Z,99088.27
2023-02-01T04:15:37.198Z,99088.88
2023-02-01T04:18:06.051Z,99090.73
2023-02-01T04:20:34.664Z,99091.14
2023-02-01T04:23:03.896Z,99093.34
2023-02-01T04:25:32.447Z,99093.05
2023-02-01T04:28:01.343Z,99092.41
2023-02-01T04:30:30.584Z,99094.29
2023-02-01T04:32:59.152Z,99093.38
2023-02-01T04:35:31.026Z,99093.77
2023-02-01T04:37:59.999Z,99094.95
2023-02-01T04:40:29.711Z,99094.89
2023-02-01T04:42:58.910Z,99098.20
2023-02-01T04:45:27.081Z,99097.70
2023-02-01T04:48:03.349Z,99100.31
2023-02-01T04:50:31.830Z,99095.10
2023-02-01T04:53:00.617Z,99093.30
2023-02-01T04:55:30.019Z,99093.86
2023-02-01T04:57:58.297Z,99090.80
2023-02-01T05:00:26.881Z,99090.64
2023-02-01T05:02:55.056Z,99087.47
2023-02-01T05:05:23.646Z,99090.79
2023-02-01T05:07:51.926Z,99089.80
2023-02-01T05:10:21.378Z,99090.00
2023-02-01T05:13:08.708Z,99087.83
2023-02-01T05:15:37.247Z,99087.41
2023-02-01T05:18:05.774Z,99086.81
2023-02-01T05:20:35.324Z,99080.16
2023-02-01T05:23:03.532Z,99083.49
2023-02-01T05:25:31.885Z,99078.75
2023-02-01T05:28:00.229Z,99076.81
2023-02-01T05:30:29.050Z,99080.54
2023-02-01T05:33:00.098Z,99081.31
2023-02-01T05:35:37.675Z,99082.71
2023-02-01T05:38:06.467Z,99083.64
2023-02-01T05:40:35.462Z,99081.64
2023-02-01T05:43:03.838Z,99081.71
2023-02-01T05:45:32.731Z,99079.92
2023-02-01T05:48:01.215Z,99079.27
2023-02-01T05:50:32.377Z,99079.07
2023-02-01T05:53:01.465Z,99079.71
2023-02-01T05:55:33.342Z,99077.58
2023-02-01T05:58:01.997Z,99075.94
2023-02-01T06:00:30.487Z,99076.13
2023-02-01T06:02:59.605Z,99077.48
2023-02-01T06:05:31.378Z,99076.56
2023-02-01T06:07:59.916Z,99075.27
2023-02-01T06:10:28.511Z,99074.92
2023-02-01T06:12:59.852Z,99078.95
2023-02-01T06:15:31.608Z,99080.68
2023-02-01T06:18:03.302Z,99082.16
2023-02-01T06:20:32.158Z,99077.66
2023-02-01T06:23:01.149Z,99074.52
2023-02-01T06:25:30.553Z,99074.45
2023-02-01T06:28:02.378Z,99075.27
2023-02-01T06:30:31.823Z,99076.14
2023-02-01T06:33:00.817Z,99077.27
2023-02-01T06:35:32.928Z,99074.84
2023-02-01T06:38:01.671Z,99071.52
2023-02-01T06:40:30.151Z,99069.67
2023-02-01T06:42:59.754Z,99072.23
2023-02-01T06:45:28.133Z,99074.77
2023-02-01T06:47:56.820Z,99078.37
2023-02-01T06:50:25.472Z,99074.14
2023-02-01T06:52:54.909Z,99073.56
2023-02-01T06:55:23.510Z,99073.87
2023-02-01T06:57:56.125Z,99074.84
2023-02-01T07:00:26.747Z,99070.82
2023-02-01T07:02:55.493Z,99069.55
2023-02-01T07:05:24.075Z,99066.51
2023-02-01T07:07:52.458Z,99064.23
2023-02-01T07:10:21.072Z,99064.27
2023-02-01T07:12:49.737Z,99063.04
2023-02-01T07:15:19.260Z,99060.78
2023-02-01T07:17:48.736Z,99056.55
2023-02-01T07:20:17.834Z,99060.55
2023-02-01T07:22:46.110Z,99057.80
2023-02-01T07:25:15.121Z,99051.09
2023-02-01T07:27:43.893Z,99043.39
2023-02-01T07:30:12.919Z,99040.76
2023-02-01T07:32:41.709Z,99036.84
2023-02-01T07:35:10.261Z,99033.13
2023-02-01T07:37:38.943Z,99026.64
2023-02-01T07:40:09.025Z,99033.53
2023-02-01T07:42:38.058Z,99031.30
2023-02-01T07:45:20.285Z,99029.17
2023-02-01T07:47:52.439Z,99031.52
2023-02-01T07:50:21.367Z,99029.81
2023-02-01T07:52:50.164Z,99026.10
2023-02-01T07:55:18.606Z,99025.55
2023-02-01T07:57:47.601Z,99025.27
2023-02-01T08:00:35.669Z,99023.61
2023-02-01T08:03:05.641Z,99020.04
2023-02-01T08:05:33.947Z,99013.20
2023-02-01T08:08:02.612Z,99023.00
2023-02-01T08:10:31.617Z,99017.83
2023-02-01T08:13:12.283Z,99020.13
2023-02-01T08:15:41.056Z,99019.88
2023-02-01T08:18:11.381Z,99020.25
2023-02-01T08:20:42.731Z,99015.73
2023-02-01T08:23:11.534Z,99014.52
2023-02-01T08:25:40.225Z,99008.25
2023-02-01T08:28:08.791Z,99004.30
2023-02-01T08:30:39.607Z,99007.23
2023-02-01T08:33:08.035Z,98999.92
2023-02-01T08:35:43.708Z,98998.41
2023-02-01T08:38:12.888Z,98993.45
2023-02-01T08:40:42.719Z,98992.85
2023-02-01T08:43:11.176Z,98991.36
2023-02-01T08:45:40.921Z,98985.02
2023-02-01T08:48:09.468Z,98980.08
2023-02-01T08:50:37.740Z,98978.16
2023-02-01T08:53:06.170Z,98975.89
2023-02-01T08:55:38.212Z,98972.66
2023-02-01T08:58:06.541Z,98975.16
2023-02-01T09:00:35.054Z,98961.44
2023-02-01T09:03:03.904Z,98956.93
2023-02-01T09:05:47.518Z,98952.98
2023-02-01T09:08:23.140Z,98945.70
2023-02-01T09:10:54.341Z,98949.80
2023-02-01T09:13:23.534Z,98940.23
2023-02-01T09:15:53.292Z,98942.40
2023-02-01T09:18:21.728Z,98933.62
2023-02-01T09:20:50.417Z,98928.06
2023-02-01T09:23:18.895Z,98930.11
2023-02-01T09:25:52.600Z,98928.89
2023-02-01T09:28:21.384Z,98924.33
2023-02-01T09:30:50.438Z,98927.15
2023-02-01T09:33:19.180Z,98926.39
2023-02-01T09:35:48.158Z,98929.83
2023-02-01T09:38:16.542Z,98925.05
2023-02-01T09:40:47.306Z,98922.80
2023-02-01T09:43:41.252Z,98918.60
2023-02-01T09:46:33.706Z,98910.68
2023-02-01T09:49:05.350Z,98908.34
2023-02-01T09:51:42.721Z,98907.20
2023-02-01T09:54:23.305Z,98902.48
2023-02-01T09:57:22.814Z,98901.83
2023-02-01T09:59:57.391Z,98899.30
2023-02-01T12:05:27.267Z,98805.48
2023-02-01T12:08:05.655Z,98803.17
2023-02-01T12:10:52.782Z,98798.23
2023-02-01T12:13:31.488Z,98798.26
2023-02-01T12:16:09.653Z,98795.35
2023-02-01T12:18:57.353Z,98797.66
2023-02-01T12:21:42.319Z,98796.42
2023-02-01T12:24:23.205Z,98793.64
2023-02-01T12:26:59.619Z,98788.79
2023-02-01T12:29:34.798Z,98791.77
2023-02-01T12:32:30.535Z,98791.80
2023-02-01T12:35:15.358Z,98793.49
2023-02-01T12:37:57.152Z,98788.61
2023-02-01T12:40:44.549Z,98784.26
2023-02-01T12:43:22.821Z,98784.20
2023-02-01T12:46:05.212Z,98780.79
2023-02-01T12:48:38.822Z,98785.48
2023-02-01T12:51:17.549Z,98783.80
2023-02-01T12:54:10.769Z,98785.46
2023-02-01T12:56:47.530Z,98784.56
2023-02-01T12:59:45.145Z,98785.42
2023-02-01T13:02:34.478Z,98786.14
2023-02-01T13:05:23.585Z,98785.14
2023-02-01T13:07:52.070Z,98787.36
2023-02-01T13:10:23.774Z,98785.26
2023-02-01T13:13:01.792Z,98786.52
2023-02-01T13:15:32.813Z,98785.98
2023-02-01T13:18:05.586Z,98788.23
2023-02-01T13:20:51.234Z,98784.02
2023-02-01T13:23:34.567Z,98788.13
2023-02-01T13:26:05.607Z,98787.91
2023-02-01T13:29:04.364Z,98786.11
2023-02-01T13:32:02.883Z,98786.65
2023-02-01T13:34:34.137Z,98785.52
2023-02-01T13:37:21.763Z,98786.07
2023-02-01T13:40:00.277Z,98785.27
2023-02-01T13:42:33.258Z,98788.20
2023-02-01T13:45:07.000Z,98790.57
2023-02-01T13:47:40.365Z,98791.67
2023-02-01T13:50:23.387Z,98794.80
2023-02-01T13:52:54.790Z,98793.38
2023-02-01T13:55:29.585Z,98797.30
2023-02-01T13:58:11.883Z,98798.65
2023-02-01T14:00:41.073Z,98793.77
2023-02-01T14:03:21.336Z,98798.77
2023-02-01T14:05:52.639Z,98795.63
2023-02-01T14:08:37.778Z,98795.90
2023-02-01T14:11:06.647Z,98798.30
2023-02-01T14:13:41.878Z,98792.20
2023-02-01T14:16:17.296Z,98792.70
2023-02-01T14:18:47.730Z,98801.48
2023-02-01T14:21:32.375Z,98801.61
2023-02-01T14:24:09.792Z,98801.23
2023-02-01T14:27:13.653Z,98805.52
2023-02-01T14:29:45.167Z,98803.98
2023-02-01T14:32:19.304Z,98806.83
2023-02-01T14:34:49.203Z,98810.40
2023-02-01T14:37:17.747Z,98812.15
2023-02-01T14:39:46.230Z,98810.21
2023-02-01T14:42:46.451Z,98813.61
2023-02-01T14:45:25.293Z,98816.45
2023-02-01T14:48:01.023Z,98818.77
2023-02-01T14:50:51.953Z,98826.91
2023-02-01T14:53:34.035Z,98830.86
2023-02-01T14:56:23.196Z,98830.98
2023-02-01T14:59:01.817Z,98830.61
2023-02-01T15:01:36.681Z,98837.94
2023-02-01T15:04:16.369Z,98834.52
2023-02-01T15:07:05.427Z,98839.16
2023-02-01T15:09:36.879Z,98839.84
2023-02-01T15:12:13.425Z,98842.02
2023-02-01T15:15:04.531Z,98848.48
2023-02-01T15:17:36.789Z,98848.73
2023-02-01T15:20:17.109Z,98855.33
2023-02-01T15:23:17.689Z,98853.52
2023-02-01T15:25:47.420Z,98856.95
2023-02-01T15:28:17.233Z,98859.64
2023-02-01T15:30:59.850Z,98859.59
2023-02-01T15:33:29.150Z,98861.48
2023-02-01T15:36:13.911Z,98860.17
2023-02-01T15:38:43.717Z,98860.91
2023-02-01T15:41:16.892Z,98865.77
2023-02-01T15:44:19.578Z,98870.83
2023-02-01T15:46:50.054Z,98872.11
2023-02-01T15:49:25.564Z,98870.69
2023-02-01T15:51:54.234Z,98870.88
2023-02-01T15:54:47.721Z,98875.23
2023-02-01T15:57:37.143Z,98882.30
2023-02-01T16:00:20.207Z,98878.45
2023-02-01T16:02:59.204Z,98879.51
2023-02-01T16:05:33.506Z,98884.94
2023-02-01T16:08:23.591Z,98883.81
2023-02-01T16:11:00.773Z,98881.13
2023-02-01T16:13:28.993Z,98881.26
2023-02-01T16:15:57.731Z,98881.12
2023-02-01T16:18:26.169Z,98881.69
2023-02-01T16:20:54.872Z,98881.05
2023-02-01T16:23:23.333Z,98879.83
2023-02-01T16:25:51.713Z,98880.70
2023-02-01T16:28:22.518Z,98882.13
2023-02-01T16:30:52.205Z,98886.77
2023-02-01T16:33:23.267Z,98880.23
2023-02-01T16:35:52.101Z,98881.52
2023-02-01T16:38:23.438Z,98879.19
2023-02-01T16:40:51.817Z,98883.17
2023-02-01T16:43:24.226Z,98882.73
2023-02-01T16:45:54.043Z,98882.96
2023-02-01T16:48:25.686Z,98883.52
2023-02-01T16:50:56.608Z,98879.73
2023-02-01T16:53:28.765Z,98886.41
2023-02-01T16:56:00.159Z,98891.36
2023-02-01T16:58:28.799Z,98885.45
2023-02-01T17:00:57.507Z,98887.05
2023-02-01T17:03:26.513Z,98886.33
2023-02-01T17:05:57.219Z,98882.45
2023-02-01T17:08:39.317Z,98881.71
2023-02-01T17:11:11.831Z,98888.33
2023-02-01T17:13:42.318Z,98890.28
2023-02-01T17:16:21.936Z,98893.41
2023-02-01T17:18:56.038Z,98890.05
2023-02-01T17:21:26.051Z,98892.48
2023-02-01T17:23:54.779Z,98891.08
2023-02-01T17:26:23.094Z,98890.52
2023-02-01T17:28:54.063Z,98893.36
2023-02-01T17:31:22.749Z,98893.05
2023-02-01T17:33:52.973Z,98892.08
2023-02-01T17:36:21.659Z,98895.37
2023-02-01T17:39:03.661Z,98894.02
2023-02-01T17:41:33.985Z,98892.16
2023-02-01T17:44:03.120Z,98892.04
2023-02-01T17:46:32.192Z,98890.97
2023-02-01T19:57:26.143Z,98879.73
2023-02-01T19:59:55.431Z,98882.63
2023-02-01T20:02:23.988Z,98887.78
2023-02-01T20:04:52.765Z,98883.77
2023-02-01T20:07:25.669Z,98879.29
2023-02-01T20:09:54.234Z,98879.09
2023-02-01T20:12:22.819Z,98876.92
2023-02-01T20:14:51.814Z,98878.73
2023-02-01T20:17:22.855Z,98879.36
2023-02-01T20:19:51.027Z,98874.70
2023-02-01T20:22:19.617Z,98872.49
2023-02-01T20:24:48.205Z,98871.60
2023-02-01T20:27:18.468Z,98873.56
2023-02-01T20:29:54.922Z,98870.36
2023-02-01T20:32:24.240Z,98874.58
2023-02-01T20:34:53.851Z,98869.95
2023-02-01T20:37:22.185Z,98870.46
2023-02-01T20:39:50.909Z,98872.96
2023-02-01T20:42:20.050Z,98872.69
2023-02-01T20:44:48.330Z,98873.13
2023-02-01T20:47:16.810Z,98881.89
2023-02-01T20:49:45.295Z,98878.92
2023-02-01T20:52:14.401Z,98883.24
2023-02-01T20:54:43.593Z,98885.01
2023-02-01T20:57:11.970Z,98887.73
2023-02-01T20:59:43.936Z,98887.05
2023-02-01T21:02:12.879Z,98882.70
2023-02-01T21:04:41.816Z,98884.42
2023-02-01T21:07:11.800Z,98884.16
2023-02-01T21:09:41.588Z,98883.05
2023-02-01T21:12:10.403Z,98880.67
2023-02-01T21:14:38.880Z,98882.89
2023-02-01T21:17:10.152Z,98881.88
2023-02-01T21:19:47.580Z,98879.77
2023-02-01T21:22:21.230Z,98881.70
2023-02-01T21:24:50.014Z,98880.17
2023-02-01T21:27:31.399Z,98883.91
2023-02-01T21:30:02.439Z,98887.66
2023-02-01T21:32:35.739Z,98884.48
2023-02-01T21:35:08.169Z,98885.16
2023-02-01T21:37:37.209Z,98892.39
2023-02-01T21:40:06.467Z,98886.73
2023-02-01T21:42:35.562Z,98890.95
2023-02-01T21:45:07.157Z,98891.67
2023-02-01T21:47:36.892Z,98891.80
2023-02-01T21:50:10.630Z,98889.64
2023-02-01T21:52:40.240Z,98888.43
2023-02-01T21:55:12.434Z,98885.82
2023-02-01T21:57:41.705Z,98883.76
2023-02-01T22:00:13.358Z,98884.20
2023-02-01T22:02:41.701Z,98885.49
2023-02-01T22:05:11.427Z,98886.40
2023-02-01T22:07:40.447Z,98889.38
2023-02-01T22:10:13.534Z,98888.27
2023-02-01T22:12:58.684Z,98885.96
2023-02-01T22:15:34.020Z,98883.10
2023-02-01T22:18:03.708Z,98883.10
2023-02-01T22:20:35.716Z,98883.02
2023-02-01T22:23:05.639Z,98883.90
2023-02-01T22:25:35.506Z,98885.61
2023-02-01T22:28:30.164Z,98884.20
2023-02-01T22:30:56.226Z,98882.03
2023-02-01T22:33:28.424Z,98883.77
2023-02-01T22:35:57.822Z,98890.00
2023-02-01T22:38:27.394Z,98885.48
2023-02-01T22:40:57.235Z,98886.87
2023-02-01T22:43:26.023Z,98887.15
2023-02-01T22:45:54.440Z,98883.83
2023-02-01T22:48:45.883Z,98884.44
2023-02-01T22:51:25.371Z,98883.02
2023-02-01T22:53:57.368Z,98885.78
2023-02-01T22:56:33.852Z,98887.61
2023-02-01T22:59:11.587Z,98889.23
2023-02-01T23:01:40.040Z,98892.86
2023-02-01T23:04:11.813Z,98890.05
2023-02-01T23:06:41.474Z,98892.03
2023-02-01T23:09:20.443Z,98894.05
2023-02-01T23:11:49.218Z,98893.92
2023-02-01T23:14:17.797Z,98897.61
2023-02-01T23:16:47.518Z,98893.87
2023-02-01T23:19:16.104Z,98897.17
2023-02-01T23:21:45.261Z,98898.93
2023-02-01T23:24:13.997Z,98896.11
2023-02-01T23:26:48.387Z,98893.50
2023-02-01T23:29:18.798Z,98891.34
2023-02-01T23:32:10.892Z,98886.59
2023-02-01T23:34:41.903Z,98886.02
2023-02-01T23:37:13.147Z,98882.11
2023-02-01T23:39:42.015Z,98881.27
2023-02-01T23:42:10.741Z,98881.90
2023-02-01T23:44:39.221Z,98884.59
2023-02-01T23:47:07.841Z,98882.30
2023-02-01T23:49:36.929Z,98882.95
2023-02-01T23:52:11.790Z,98881.88
2023-02-01T23:54:40.244Z,98885.09
2023-02-01T23:57:08.802Z,98884.52
